Hamburg, MI (48139)

9:54 AM EST on February 01, 2015 (GMT -0500)
Linwood | Change Station
CLOSE
Current Station
Personal Weather Station
Location: Hamburg, MI
Elevation: 902 ft
Nearby Weather Stations

Elev 902 ft 42.47 °N, 83.80 °W | Updated 12 minutes ago

Snow
Snow
22.0 °F
Feels Like 22 °F
N
0.0
Wind Variable Wind from ESE
Gusts 5.0 mph

Today
High -- | Low -- °F
--% Chance of Precip.
Yesterday
High -- | Low -- °F
Precip. -- in
7:49 AM 5:48 PM
Waxing Gibbous, 95% visible
Pressure 30.11 in
Visibility 1.0 miles
Clouds Overcast 1000 ft
Windchill 22 °F
Dew Point 20 °F
Humidity 91%
Rainfall 0.00 in
Snow Depth Not available.
UV 0 out of 12
Pollen .10 out of 12
Air Quality Not available.
Flu Activity Not available.
METAR KOZW 011435Z AUTO 06008KT 1SM -SN OVC010 M07/M08 A3011 RMK AO2 T10691080

More Conditions Fewer Conditions

Pressure 30.11 in
Visibility 1.0 miles
Clouds Overcast 1000 ft
Windchill 22 °F
Dew Point 20 °F
Humidity 91%
Rainfall 0.00 in
Snow Depth Not available.
UV 0 out of 12
Pollen .10 out of 12
Air Quality Not available.
Flu Activity Not available.
METAR KOZW 011435Z AUTO 06008KT 1SM -SN OVC010 M07/M08 A3011 RMK AO2 T10691080

More Conditions Fewer Conditions

10-Day Weather Forecast

Almanac

Astronomy

Feb. 01, 2015 Rise Set
Actual Time
Civil Twilight
Nautical Twilight
Astronomical Twilight
Moon
Length of Visible Light
Length of Day
Tomorrow will be .
, % of the Moon is Illuminated

Today's Extremes

State Highs State Lows

Community

WunderPhotos

Upload Photos

1,792,362 photos uploaded!

WunderBlogs® & News

Nearby

Air Quality

  Air Quality AQ Index Pollutant
Not available.

Snow Depth

Station Depth Elevation

Earthquake Activity

City Distance Mag. Time & Date
Minimum magnitude displayed is 2.5.

Coastal Water Temperatures

Place Temperature

Nearby Weather Stations